Time;durP1;ratioP1;P1;durP2;ratioP2;P2;SDS_P1;SDS_P2;PMS_P1;PMS_P2;Temp;Humidity;BMP_temperature;BMP_pressure;BME280_temperature;BME280_humidity;BME280_pressure;Samples;Min_cycle;Max_cycle;Signal;HPM_P1;HPM_P2
2022/10/14 00:00:00;;;;;;;9.88;3.78;;;;;;;;;;10281263;28;20109;-75
2022/10/14 00:05:01;;;;;;;13.05;3.60;;;;;;;;;;10282876;28;20409;-82
2022/10/14 00:10:01;;;;;;;5.60;3.25;;;;;;;;;;10285977;28;20547;-74
2022/10/14 00:15:01;;;;;;;5.87;3.20;;;;;;;;;;10286368;28;20521;-77
2022/10/14 00:20:02;;;;;;;9.70;3.70;;;;;;;;;;10288240;28;20274;-76
2022/10/14 00:25:02;;;;;;;4.38;3.15;;;;;;;;;;10287993;28;20023;-81
2022/10/14 00:30:03;;;;;;;7.43;2.85;;;;;;;;;;10286958;28;20054;-82
2022/10/14 00:35:03;;;;;;;6.97;2.97;;;;;;;;;;10285605;28;20037;-79
2022/10/14 00:40:04;;;;;;;4.68;2.50;;;;;;;;;;10286022;28;20109;-80
2022/10/14 00:45:09;;;;;;;5.72;2.60;;;;;;;;;;10285741;28;20479;-74
2022/10/14 00:50:10;;;;;;;5.18;2.67;;;;;;;;;;10285984;28;20129;-78
2022/10/14 00:55:15;;;;;;;6.55;3.00;;;;;;;;;;10285379;28;20070;-75
2022/10/14 01:00:18;;;;;;;4.22;2.00;;;;;;;;;;10283329;28;20019;-79
2022/10/14 01:05:18;;;;;;;7.18;2.10;;;;;;;;;;10284397;28;20026;-77
2022/10/14 01:10:23;;;;;;;2.60;1.77;;;;;;;;;;10288718;28;20404;-75
2022/10/14 01:15:26;;;;;;;7.60;2.40;;;;;;;;;;10283786;28;20050;-81
2022/10/14 01:20:45;;;;;;;4.63;2.05;;;;;;;;;;10285134;28;20559;-83
2022/10/14 01:25:58;;;;;;;3.33;1.83;;;;;;;;;;10285406;28;20095;-80
2022/10/14 01:31:03;;;;;;;3.53;1.58;;;;;;;;;;10283038;28;20516;-78
2022/10/14 01:36:10;;;;;;;7.80;2.15;;;;;;;;;;10285650;28;20027;-80
2022/10/14 01:41:19;;;;;;;3.03;1.70;;;;;;;;;;10285648;28;20026;-76
2022/10/14 01:46:21;;;;;;;6.32;2.40;;;;;;;;;;10282594;28;20134;-79
2022/10/14 01:51:25;;;;;;;2.63;2.05;;;;;;;;;;10283385;28;20066;-81
2022/10/14 01:56:27;;;;;;;3.22;2.08;;;;;;;;;;10283368;28;20023;-83
2022/10/14 02:01:28;;;;;;;5.20;1.83;;;;;;;;;;10282539;28;20015;-81
2022/10/14 02:06:33;;;;;;;2.63;2.00;;;;;;;;;;10282723;28;20034;-76
2022/10/14 02:11:40;;;;;;;3.05;1.90;;;;;;;;;;10281635;28;20512;-76
2022/10/14 02:16:47;;;;;;;3.95;2.40;;;;;;;;;;10282173;28;20105;-83
2022/10/14 02:21:56;;;;;;;4.07;2.27;;;;;;;;;;10281505;28;20254;-77
2022/10/14 02:26:56;;;;;;;;;;;;;;;;;;10283797;28;20850;-79
2022/10/14 02:31:58;;;;;;;3.78;2.10;;;;;;;;;;10283039;28;19912;-80
2022/10/14 02:36:58;;;;;;;4.68;2.30;;;;;;;;;;10265633;28;20030;-75
2022/10/14 02:41:58;;;;;;;6.03;2.00;;;;;;;;;;10280921;28;20513;-76
2022/10/14 02:46:59;;;;;;;2.35;1.90;;;;;;;;;;10281301;28;20481;-79
2022/10/14 02:51:59;;;;;;;3.10;2.00;;;;;;;;;;10281111;28;20417;-74
2022/10/14 02:56:59;;;;;;;2.30;2.00;;;;;;;;;;10281101;28;20030;-78
2022/10/14 03:01:59;;;;;;;6.90;2.60;;;;;;;;;;10280718;28;20030;-78
2022/10/14 03:07:00;;;;;;;3.13;2.50;;;;;;;;;;10280869;28;20511;-74
2022/10/14 03:12:00;;;;;;;4.70;2.65;;;;;;;;;;10280563;28;20134;-80
2022/10/14 03:17:00;;;;;;;5.53;2.53;;;;;;;;;;10280813;28;20038;-76
2022/10/14 03:22:01;;;;;;;2.50;2.28;;;;;;;;;;10299968;23;20393;-77
2022/10/14 03:27:01;;;;;;;4.70;2.08;;;;;;;;;;10256644;28;20108;-78
2022/10/14 03:32:01;;;;;;;8.57;3.05;;;;;;;;;;10256610;28;20022;-79
2022/10/14 03:37:01;;;;;;;5.57;2.57;;;;;;;;;;10256221;28;20034;-79
2022/10/14 03:42:02;;;;;;;3.37;2.70;;;;;;;;;;10263204;28;20110;-80
2022/10/14 03:47:02;;;;;;;3.67;2.80;;;;;;;;;;10264675;28;20121;-82
2022/10/14 03:52:03;;;;;;;4.30;2.75;;;;;;;;;;10265941;28;20461;-79
2022/10/14 03:57:03;;;;;;;5.28;2.75;;;;;;;;;;10265106;28;20015;-77
2022/10/14 04:02:04;;;;;;;3.42;2.30;;;;;;;;;;10264436;28;20085;-73
2022/10/14 04:07:04;;;;;;;3.63;1.77;;;;;;;;;;10264311;28;20033;-74
2022/10/14 04:12:04;;;;;;;4.50;2.63;;;;;;;;;;10289101;28;20508;-80
2022/10/14 04:17:04;;;;;;;5.63;2.87;;;;;;;;;;10262868;28;20509;-79
2022/10/14 04:22:05;;;;;;;8.90;3.78;;;;;;;;;;10264562;28;20488;-75
2022/10/14 04:27:05;;;;;;;6.57;3.67;;;;;;;;;;10259951;28;20507;-78
2022/10/14 04:32:05;;;;;;;6.77;2.87;;;;;;;;;;10262687;28;20040;-78
2022/10/14 04:37:05;;;;;;;4.82;3.58;;;;;;;;;;10262156;28;20053;-79
2022/10/14 04:42:06;;;;;;;8.98;4.63;;;;;;;;;;10263414;28;20082;-79
2022/10/14 04:47:06;;;;;;;7.63;4.30;;;;;;;;;;10260516;28;20027;-75
2022/10/14 04:52:06;;;;;;;13.90;4.28;;;;;;;;;;10262475;28;20046;-77
2022/10/14 04:57:08;;;;;;;4.32;3.65;;;;;;;;;;10264858;28;20030;-74
2022/10/14 05:02:09;;;;;;;5.40;4.13;;;;;;;;;;10263747;28;20315;-80
2022/10/14 05:07:09;;;;;;;9.63;4.32;;;;;;;;;;10263278;28;20035;-80
2022/10/14 05:12:09;;;;;;;6.97;4.15;;;;;;;;;;10259893;28;20026;-75
2022/10/14 05:17:10;;;;;;;5.95;4.03;;;;;;;;;;10259486;28;20494;-79
2022/10/14 05:22:10;;;;;;;5.70;4.55;;;;;;;;;;10259491;28;20058;-74
2022/10/14 05:27:10;;;;;;;5.18;3.80;;;;;;;;;;10261576;28;20089;-79
2022/10/14 05:32:10;;;;;;;6.13;4.70;;;;;;;;;;10262633;28;20026;-76
2022/10/14 05:37:11;;;;;;;11.93;5.25;;;;;;;;;;10265542;28;20086;-74
2022/10/14 05:42:11;;;;;;;6.20;4.87;;;;;;;;;;10260817;28;20023;-74
2022/10/14 05:47:11;;;;;;;7.43;4.75;;;;;;;;;;10288218;28;20030;-77
2022/10/14 05:52:12;;;;;;;9.57;5.17;;;;;;;;;;10249915;28;20057;-75
2022/10/14 05:57:12;;;;;;;8.33;4.80;;;;;;;;;;10240050;28;20038;-77
2022/10/14 06:02:13;;;;;;;11.30;4.70;;;;;;;;;;10259248;28;20274;-75
2022/10/14 06:07:15;;;;;;;8.48;3.78;;;;;;;;;;10261908;28;20027;-76
2022/10/14 06:12:16;;;;;;;10.35;5.65;;;;;;;;;;10256727;28;20031;-80
2022/10/14 06:17:16;;;;;;;8.40;4.68;;;;;;;;;;10261526;28;20023;-75
2022/10/14 06:22:17;;;;;;;7.82;3.22;;;;;;;;;;10262587;28;20054;-80
2022/10/14 06:27:17;;;;;;;7.07;3.65;;;;;;;;;;10263347;28;20027;-80
2022/10/14 06:32:18;;;;;;;4.85;2.97;;;;;;;;;;10260827;28;20034;-79
2022/10/14 06:37:19;;;;;;;3.75;3.25;;;;;;;;;;10262255;28;21297;-75
2022/10/14 06:42:19;;;;;;;10.05;3.75;;;;;;;;;;10262250;28;20019;-79
2022/10/14 06:47:19;;;;;;;10.13;4.03;;;;;;;;;;10262027;28;20398;-79
2022/10/14 06:52:20;;;;;;;7.47;3.97;;;;;;;;;;10256016;28;20042;-79
2022/10/14 06:57:21;;;;;;;6.65;3.72;;;;;;;;;;10260242;28;20391;-75
2022/10/14 07:02:21;;;;;;;6.63;4.50;;;;;;;;;;10280488;28;20038;-75
2022/10/14 07:07:22;;;;;;;9.75;4.55;;;;;;;;;;10263714;28;20035;-77
2022/10/14 07:12:23;;;;;;;6.97;4.00;;;;;;;;;;10259806;28;20034;-76
2022/10/14 07:17:23;;;;;;;8.00;3.60;;;;;;;;;;10282475;28;20449;-75
2022/10/14 07:22:24;;;;;;;5.82;4.07;;;;;;;;;;10258661;28;20058;-79
2022/10/14 07:27:25;;;;;;;6.15;4.00;;;;;;;;;;10258278;28;20027;-78
2022/10/14 07:32:26;;;;;;;5.70;3.80;;;;;;;;;;10257455;28;20030;-76
2022/10/14 07:37:26;;;;;;;5.05;3.50;;;;;;;;;;10259366;28;20034;-82
2022/10/14 07:42:27;;;;;;;13.27;3.75;;;;;;;;;;10258996;28;20051;-76
2022/10/14 07:47:28;;;;;;;14.38;4.25;;;;;;;;;;10257815;28;20034;-76
2022/10/14 07:52:31;;;;;;;9.88;4.28;;;;;;;;;;10256952;28;20121;-76
2022/10/14 07:57:32;;;;;;;11.23;4.38;;;;;;;;;;10255777;28;20070;-76
2022/10/14 08:02:35;;;;;;;5.95;4.38;;;;;;;;;;10253097;28;20106;-76
2022/10/14 08:07:36;;;;;;;8.43;4.00;;;;;;;;;;10257454;28;20023;-79
2022/10/14 08:12:37;;;;;;;6.82;4.65;;;;;;;;;;10259804;28;20449;-75
2022/10/14 08:17:40;;;;;;;7.30;3.80;;;;;;;;;;10258390;28;20034;-79
2022/10/14 08:22:44;;;;;;;9.75;3.85;;;;;;;;;;10260378;28;20097;-74
2022/10/14 08:27:47;;;;;;;5.35;3.90;;;;;;;;;;10262040;28;20113;-75
2022/10/14 08:32:48;;;;;;;3.40;2.88;;;;;;;;;;10263480;28;20061;-75
2022/10/14 08:37:58;;;;;;;7.45;3.00;;;;;;;;;;10290100;28;20117;-76
2022/10/14 08:43:19;;;;;;;4.55;2.67;;;;;;;;;;10258319;28;20030;-80
2022/10/14 08:48:22;;;;;;;9.88;4.00;;;;;;;;;;10288445;28;20485;-82
2022/10/14 08:53:28;;;;;;;5.90;2.03;;;;;;;;;;10265334;28;20089;-75
2022/10/14 08:58:40;;;;;;;3.38;2.05;;;;;;;;;;10267631;28;20115;-83
2022/10/14 09:03:41;;;;;;;4.75;1.83;;;;;;;;;;10259433;28;20017;-78
2022/10/14 09:08:43;;;;;;;3.90;2.33;;;;;;;;;;10264620;28;20031;-82
2022/10/14 09:14:05;;;;;;;4.22;2.22;;;;;;;;;;10263688;28;20018;-75
2022/10/14 09:19:13;;;;;;;5.10;2.13;;;;;;;;;;10262585;28;20023;-80
2022/10/14 09:24:16;;;;;;;3.25;2.15;;;;;;;;;;10263802;28;20026;-74
2022/10/14 09:29:31;;;;;;;7.57;2.60;;;;;;;;;;10247448;28;20161;-79
2022/10/14 09:34:45;;;;;;;4.72;2.30;;;;;;;;;;10261306;28;20085;-75
2022/10/14 09:39:46;;;;;;;4.47;2.58;;;;;;;;;;10261413;28;20023;-75
2022/10/14 09:45:06;;;;;;;5.22;2.08;;;;;;;;;;10262529;28;20549;-77
2022/10/14 09:50:09;;;;;;;3.08;2.33;;;;;;;;;;10271803;28;20030;-80
2022/10/14 09:55:18;;;;;;;2.95;2.22;;;;;;;;;;10263208;28;20027;-82
2022/10/14 10:00:27;;;;;;;2.58;1.83;;;;;;;;;;10258367;28;20030;-79
2022/10/14 10:05:29;;;;;;;6.03;2.17;;;;;;;;;;10261472;28;20414;-75
2022/10/14 10:10:30;;;;;;;3.28;2.20;;;;;;;;;;10284308;28;20035;-80
2022/10/14 10:15:31;;;;;;;2.25;1.90;;;;;;;;;;10286864;28;20026;-80
2022/10/14 10:20:32;;;;;;;3.08;1.58;;;;;;;;;;10259841;28;20047;-73
2022/10/14 10:25:33;;;;;;;2.33;1.25;;;;;;;;;;10259885;28;20019;-75
2022/10/14 10:30:42;;;;;;;5.55;1.98;;;;;;;;;;10260645;28;20031;-73
2022/10/14 10:36:04;;;;;;;4.10;1.50;;;;;;;;;;10263455;28;20038;-81
2022/10/14 10:41:12;;;;;;;1.38;1.20;;;;;;;;;;10263171;28;20065;-76
2022/10/14 10:46:31;;;;;;;1.63;1.13;;;;;;;;;;10260180;28;20085;-82
2022/10/14 10:51:34;;;;;;;6.78;1.58;;;;;;;;;;10273332;28;20520;-81
2022/10/14 10:56:37;;;;;;;3.40;1.27;;;;;;;;;;10259174;28;20126;-75
2022/10/14 11:01:49;;;;;;;2.30;1.58;;;;;;;;;;10259433;28;20015;-79
2022/10/14 11:12:29;;;;;;;8.25;1.52;;;;;;;;;;10261116;28;20027;-76
2022/10/14 11:17:48;;;;;;;4.28;0.90;;;;;;;;;;10279886;28;20500;-80
2022/10/14 11:23:07;;;;;;;2.60;0.82;;;;;;;;;;10282176;28;20142;-74
2022/10/14 11:28:07;;;;;;;1.25;0.90;;;;;;;;;;10258804;28;20054;-77
2022/10/14 11:33:08;;;;;;;0.93;0.60;;;;;;;;;;10261467;28;20197;-81
2022/10/14 11:38:26;;;;;;;1.10;0.75;;;;;;;;;;10282698;28;20119;-76
2022/10/14 11:43:46;;;;;;;1.00;0.73;;;;;;;;;;10258238;28;20089;-81
2022/10/14 11:48:50;;;;;;;3.22;0.52;;;;;;;;;;10258404;28;20478;-76
2022/10/14 11:53:55;;;;;;;2.22;0.85;;;;;;;;;;10256976;28;20040;-77
2022/10/14 11:59:02;;;;;;;12.40;1.00;;;;;;;;;;10258807;28;20070;-76
2022/10/14 12:04:11;;;;;;;1.35;0.90;;;;;;;;;;10266104;28;20433;-75
2022/10/14 12:09:37;;;;;;;4.13;0.70;;;;;;;;;;10263857;28;20135;-74
2022/10/14 12:14:39;;;;;;;1.95;0.70;;;;;;;;;;10276995;28;20039;-75
2022/10/14 12:19:40;;;;;;;2.35;0.70;;;;;;;;;;10264801;28;20047;-81
2022/10/14 12:24:42;;;;;;;2.28;0.70;;;;;;;;;;10253963;28;20031;-77
2022/10/14 12:29:43;;;;;;;1.73;0.73;;;;;;;;;;10248516;28;20490;-73
2022/10/14 12:34:46;;;;;;;1.95;0.60;;;;;;;;;;10269755;28;20114;-79
2022/10/14 12:39:47;;;;;;;10.18;0.77;;;;;;;;;;10256535;28;20026;-78
2022/10/14 12:44:55;;;;;;;1.63;0.63;;;;;;;;;;10258600;28;20027;-81
2022/10/14 12:50:01;;;;;;;2.10;0.75;;;;;;;;;;10250622;28;20275;-81
2022/10/14 12:55:08;;;;;;;1.10;0.68;;;;;;;;;;10253610;28;20490;-77
2022/10/14 13:00:23;;;;;;;3.50;0.95;;;;;;;;;;10243100;28;20085;-79
2022/10/14 13:05:38;;;;;;;5.35;0.73;;;;;;;;;;10275151;28;20035;-79
2022/10/14 13:10:38;;;;;;;8.30;0.93;;;;;;;;;;10253957;28;20058;-80
2022/10/14 13:15:49;;;;;;;2.05;0.98;;;;;;;;;;10250700;28;20130;-76
2022/10/14 13:20:50;;;;;;;8.38;1.10;;;;;;;;;;10244046;28;20051;-73
2022/10/14 13:25:51;;;;;;;3.15;0.95;;;;;;;;;;10245029;28;20027;-73
2022/10/14 13:30:54;;;;;;;9.43;1.27;;;;;;;;;;10260191;28;20033;-74
2022/10/14 13:35:57;;;;;;;1.35;0.82;;;;;;;;;;10258955;28;20397;-72
2022/10/14 13:40:58;;;;;;;2.67;0.63;;;;;;;;;;10259816;28;20030;-74
2022/10/14 13:46:03;;;;;;;2.17;0.98;;;;;;;;;;10282361;28;20029;-73
2022/10/14 13:51:18;;;;;;;1.98;1.08;;;;;;;;;;10257695;28;20027;-82
2022/10/14 13:56:23;;;;;;;6.40;1.00;;;;;;;;;;10268086;28;20034;-74
2022/10/14 14:01:32;;;;;;;4.55;0.80;;;;;;;;;;10280734;28;20641;-76
2022/10/14 14:06:32;;;;;;;2.55;0.55;;;;;;;;;;10251871;28;20455;-74
2022/10/14 14:11:36;;;;;;;1.58;0.68;;;;;;;;;;10256988;28;20050;-78
2022/10/14 14:16:38;;;;;;;3.55;0.80;;;;;;;;;;10280767;28;20114;-73
2022/10/14 14:21:39;;;;;;;2.30;0.95;;;;;;;;;;10243709;28;20171;-77
2022/10/14 14:26:39;;;;;;;2.35;0.98;;;;;;;;;;10258653;28;20027;-73
2022/10/14 14:31:39;;;;;;;8.48;1.35;;;;;;;;;;10259099;28;20594;-72
2022/10/14 14:36:40;;;;;;;1.30;0.88;;;;;;;;;;10256951;28;20031;-75
2022/10/14 14:41:48;;;;;;;1.73;0.93;;;;;;;;;;10282777;28;20054;-74
2022/10/14 14:46:49;;;;;;;2.70;0.80;;;;;;;;;;10256029;28;20055;-75
2022/10/14 14:51:50;;;;;;;4.10;1.08;;;;;;;;;;10282107;28;20181;-74
2022/10/14 14:56:59;;;;;;;4.47;1.20;;;;;;;;;;10256702;28;20034;-73
2022/10/14 15:02:00;;;;;;;3.00;1.30;;;;;;;;;;10258430;28;20466;-74
2022/10/14 15:07:11;;;;;;;8.95;1.60;;;;;;;;;;10254802;28;20475;-76
2022/10/14 15:12:22;;;;;;;4.80;1.48;;;;;;;;;;10256658;28;20122;-75
2022/10/14 15:17:22;;;;;;;4.78;1.10;;;;;;;;;;10256008;28;20129;-79
2022/10/14 15:22:33;;;;;;;4.03;1.38;;;;;;;;;;10280643;28;20050;-74
2022/10/14 15:27:36;;;;;;;2.00;1.08;;;;;;;;;;10257201;28;20466;-75
2022/10/14 15:32:37;;;;;;;5.82;1.98;;;;;;;;;;10282101;28;20030;-75
2022/10/14 15:37:37;;;;;;;5.43;1.30;;;;;;;;;;10263998;28;20035;-73
2022/10/14 15:42:37;;;;;;;4.43;1.40;;;;;;;;;;10289687;28;20046;-72
2022/10/14 15:47:38;;;;;;;3.38;1.05;;;;;;;;;;10266214;28;20019;-74
2022/10/14 15:52:38;;;;;;;4.88;2.08;;;;;;;;;;10261815;28;20193;-74
2022/10/14 15:57:38;;;;;;;7.07;2.72;;;;;;;;;;10263874;28;20030;-75
2022/10/14 16:02:42;;;;;;;18.05;3.63;;;;;;;;;;10263746;28;20019;-74
2022/10/14 16:07:44;;;;;;;7.40;2.20;;;;;;;;;;10264210;28;20571;-73
2022/10/14 16:12:44;;;;;;;6.05;2.22;;;;;;;;;;10273778;28;20077;-74
2022/10/14 16:17:44;;;;;;;6.65;3.38;;;;;;;;;;10263544;28;20114;-72
2022/10/14 16:22:45;;;;;;;5.97;2.45;;;;;;;;;;10262017;28;20083;-75
2022/10/14 16:27:45;;;;;;;11.18;2.80;;;;;;;;;;10247295;28;20031;-74
2022/10/14 16:32:45;;;;;;;10.77;2.70;;;;;;;;;;10264872;28;20038;-73
2022/10/14 16:37:45;;;;;;;5.65;2.25;;;;;;;;;;10263122;28;20019;-74
2022/10/14 16:42:46;;;;;;;18.08;4.93;;;;;;;;;;10263026;28;20102;-74
2022/10/14 16:47:46;;;;;;;7.90;2.30;;;;;;;;;;10261752;28;20026;-78
2022/10/14 16:58:05;;;;;;;6.57;1.95;;;;;;;;;;10259603;28;20119;-76
2022/10/14 17:03:06;;;;;;;5.25;2.65;;;;;;;;;;10261886;28;20149;-78
2022/10/14 17:08:07;;;;;;;6.47;3.08;;;;;;;;;;10257547;28;20031;-76
2022/10/14 17:13:07;;;;;;;4.97;2.67;;;;;;;;;;10258937;28;20027;-74
2022/10/14 17:18:08;;;;;;;6.80;2.72;;;;;;;;;;10260133;28;20027;-80
2022/10/14 17:23:08;;;;;;;6.78;3.65;;;;;;;;;;10260169;28;20050;-75
2022/10/14 17:28:11;;;;;;;10.43;4.13;;;;;;;;;;10262274;28;20097;-78
2022/10/14 17:33:11;;;;;;;11.95;4.75;;;;;;;;;;10260283;28;20117;-74
2022/10/14 17:38:12;;;;;;;15.10;5.25;;;;;;;;;;10284190;28;20033;-75
2022/10/14 17:43:13;;;;;;;19.67;5.67;;;;;;;;;;10261490;28;20467;-72
2022/10/14 17:48:15;;;;;;;14.45;5.47;;;;;;;;;;10261954;28;20033;-73
2022/10/14 17:53:15;;;;;;;15.05;5.95;;;;;;;;;;10269666;28;20030;-80
2022/10/14 17:58:16;;;;;;;17.77;6.75;;;;;;;;;;10259970;28;20030;-74
2022/10/14 18:03:17;;;;;;;9.80;4.20;;;;;;;;;;10263086;28;20027;-74
2022/10/14 18:08:17;;;;;;;4.70;3.03;;;;;;;;;;10258972;28;20023;-75
2022/10/14 18:13:17;;;;;;;7.93;3.33;;;;;;;;;;10283586;28;20031;-74
2022/10/14 18:18:18;;;;;;;9.23;2.63;;;;;;;;;;10262150;28;20026;-74
2022/10/14 18:23:18;;;;;;;7.40;2.53;;;;;;;;;;10260714;28;20047;-73
2022/10/14 18:28:18;;;;;;;6.05;2.53;;;;;;;;;;10259138;28;20796;-73
2022/10/14 18:33:19;;;;;;;3.40;2.17;;;;;;;;;;10280293;28;20050;-73
2022/10/14 18:38:19;;;;;;;3.67;2.53;;;;;;;;;;10259674;28;20105;-76
2022/10/14 18:43:19;;;;;;;3.85;1.88;;;;;;;;;;10258675;28;20038;-75
2022/10/14 18:48:20;;;;;;;6.07;2.20;;;;;;;;;;10281432;28;20039;-76
2022/10/14 18:53:21;;;;;;;3.60;2.08;;;;;;;;;;10259638;28;20029;-75
2022/10/14 18:58:21;;;;;;;3.50;1.83;;;;;;;;;;10257756;28;20023;-75
2022/10/14 19:03:21;;;;;;;6.00;1.95;;;;;;;;;;10256357;28;20019;-75
2022/10/14 19:08:23;;;;;;;3.88;2.50;;;;;;;;;;10256146;28;20042;-74
2022/10/14 19:13:24;;;;;;;6.65;2.20;;;;;;;;;;10257533;28;20117;-74
2022/10/14 19:18:24;;;;;;;4.45;2.63;;;;;;;;;;10282926;28;20035;-74
2022/10/14 19:23:24;;;;;;;3.65;2.05;;;;;;;;;;10258775;28;20059;-75
2022/10/14 19:28:24;;;;;;;7.80;2.40;;;;;;;;;;10257701;28;20037;-79
2022/10/14 19:33:25;;;;;;;5.37;2.87;;;;;;;;;;10255317;28;20031;-75
2022/10/14 19:38:25;;;;;;;6.10;2.22;;;;;;;;;;10256124;28;20031;-74
2022/10/14 19:43:26;;;;;;;3.65;1.45;;;;;;;;;;10257946;28;20023;-75
2022/10/14 19:48:26;;;;;;;2.50;1.47;;;;;;;;;;10258631;28;20031;-74
2022/10/14 19:53:26;;;;;;;2.70;1.92;;;;;;;;;;10282726;28;20024;-73
2022/10/14 19:58:27;;;;;;;2.87;2.00;;;;;;;;;;10250948;28;20046;-73
2022/10/14 20:03:27;;;;;;;2.63;1.60;;;;;;;;;;10255377;28;20522;-75
2022/10/14 20:08:27;;;;;;;5.38;2.20;;;;;;;;;;10255768;28;20383;-74
2022/10/14 20:13:27;;;;;;;3.77;2.10;;;;;;;;;;10253408;28;20508;-79
2022/10/14 20:18:28;;;;;;;5.05;1.73;;;;;;;;;;10254729;28;20503;-80
2022/10/14 20:23:28;;;;;;;3.20;2.00;;;;;;;;;;10264882;28;20051;-78
2022/10/14 20:28:29;;;;;;;3.50;2.10;;;;;;;;;;10270226;28;20019;-75
2022/10/14 20:33:30;;;;;;;3.67;1.85;;;;;;;;;;10268707;28;20058;-74
2022/10/14 20:38:30;;;;;;;6.88;2.20;;;;;;;;;;10264554;28;20034;-75
2022/10/14 20:43:35;;;;;;;4.07;2.15;;;;;;;;;;10270221;28;20031;-78
2022/10/14 20:48:36;;;;;;;3.42;1.73;;;;;;;;;;10256041;28;20030;-80
2022/10/14 20:53:37;;;;;;;5.45;2.13;;;;;;;;;;10261976;28;20031;-77
2022/10/14 20:58:38;;;;;;;4.07;2.10;;;;;;;;;;10264367;28;20028;-79
2022/10/14 21:03:39;;;;;;;4.05;2.00;;;;;;;;;;10263325;28;20018;-79
2022/10/14 21:08:40;;;;;;;6.03;2.08;;;;;;;;;;10265037;28;20569;-79
2022/10/14 21:13:44;;;;;;;3.92;1.70;;;;;;;;;;10262507;28;20093;-77
2022/10/14 21:18:45;;;;;;;6.15;2.30;;;;;;;;;;10262754;28;20024;-78
2022/10/14 21:23:47;;;;;;;5.50;2.17;;;;;;;;;;10259867;28;20039;-74
2022/10/14 21:28:49;;;;;;;3.17;1.98;;;;;;;;;;10261771;28;20043;-75
2022/10/14 21:33:56;;;;;;;6.25;2.45;;;;;;;;;;10263107;28;20011;-79
2022/10/14 21:38:56;;;;;;;5.80;2.55;;;;;;;;;;10283134;28;20030;-81
2022/10/14 21:43:57;;;;;;;9.07;3.37;;;;;;;;;;10259434;28;20524;-79
2022/10/14 21:48:57;;;;;;;11.05;2.90;;;;;;;;;;10265994;28;20342;-79
2022/10/14 21:53:58;;;;;;;8.80;3.10;;;;;;;;;;10263942;28;20031;-82
2022/10/14 21:58:59;;;;;;;5.88;2.92;;;;;;;;;;10257178;28;20019;-75
2022/10/14 22:04:02;;;;;;;14.40;4.25;;;;;;;;;;10246591;28;20033;-75
2022/10/14 22:09:04;;;;;;;8.40;4.15;;;;;;;;;;10260714;28;20056;-79
2022/10/14 22:14:05;;;;;;;7.15;4.15;;;;;;;;;;10262399;28;20050;-81
2022/10/14 22:19:10;;;;;;;18.90;4.55;;;;;;;;;;10251058;28;20043;-79
2022/10/14 22:24:11;;;;;;;9.68;3.05;;;;;;;;;;10264654;28;20657;-80
2022/10/14 22:29:15;;;;;;;8.48;3.47;;;;;;;;;;10286417;28;20019;-80
2022/10/14 22:34:17;;;;;;;6.82;4.10;;;;;;;;;;10257578;28;20596;-80
2022/10/14 22:39:17;;;;;;;6.63;3.20;;;;;;;;;;10261394;28;20026;-75
2022/10/14 22:44:17;;;;;;;11.73;4.43;;;;;;;;;;10259795;28;20015;-75
2022/10/14 22:49:18;;;;;;;8.80;3.70;;;;;;;;;;10261885;28;20266;-82
2022/10/14 22:54:18;;;;;;;9.85;3.50;;;;;;;;;;10260160;28;20046;-76
2022/10/14 22:59:18;;;;;;;9.60;3.97;;;;;;;;;;10259819;28;20314;-73
2022/10/14 23:04:18;;;;;;;14.73;3.72;;;;;;;;;;10285815;28;20088;-80
2022/10/14 23:09:19;;;;;;;9.32;3.25;;;;;;;;;;10261014;28;20077;-79
2022/10/14 23:14:19;;;;;;;11.25;3.63;;;;;;;;;;10259929;28;20468;-80
2022/10/14 23:19:19;;;;;;;5.55;3.50;;;;;;;;;;10242094;28;20046;-75
2022/10/14 23:24:19;;;;;;;8.77;3.33;;;;;;;;;;10263739;28;20030;-75
2022/10/14 23:29:19;;;;;;;8.15;3.67;;;;;;;;;;10264272;28;20015;-80
2022/10/14 23:34:20;;;;;;;4.50;3.40;;;;;;;;;;10265628;28;20023;-75
2022/10/14 23:39:20;;;;;;;8.45;3.92;;;;;;;;;;10285257;28;20027;-77
2022/10/14 23:44:20;;;;;;;9.13;3.42;;;;;;;;;;10260820;28;20098;-80
2022/10/14 23:49:20;;;;;;;7.25;3.70;;;;;;;;;;10260124;28;20353;-80
2022/10/14 23:54:21;;;;;;;5.30;3.47;;;;;;;;;;10258101;28;20027;-75
2022/10/14 23:59:21;;;;;;;7.65;3.33;;;;;;;;;;10268266;28;20501;-74
